createdAt,value
2022-11-02T00:00:02.308Z,1.95
2022-11-02T00:03:05.616Z,1.70
2022-11-02T00:06:08.764Z,1.90
2022-11-02T00:09:11.944Z,2.20
2022-11-02T00:12:14.876Z,1.70
2022-11-02T00:15:20.431Z,1.80
2022-11-02T00:18:23.802Z,2.00
2022-11-02T00:21:28.316Z,1.90
2022-11-02T00:24:34.106Z,1.40
2022-11-02T00:27:37.250Z,2.40
2022-11-02T00:30:41.932Z,1.92
2022-11-02T00:33:44.922Z,1.58
2022-11-02T00:36:53.035Z,1.65
2022-11-02T00:39:59.509Z,1.77
2022-11-02T00:43:02.605Z,1.08
2022-11-02T00:46:07.292Z,1.88
2022-11-02T00:49:10.421Z,1.45
2022-11-02T00:52:13.510Z,1.75
2022-11-02T00:55:18.006Z,1.67
2022-11-02T00:58:21.304Z,1.67
2022-11-02T01:01:25.846Z,2.00
2022-11-02T01:04:28.901Z,1.90
2022-11-02T01:07:32.484Z,1.52
2022-11-02T01:10:35.547Z,1.65
2022-11-02T01:13:38.498Z,1.35
2022-11-02T01:19:47.633Z,1.67
2022-11-02T01:22:50.616Z,1.90
2022-11-02T01:25:54.094Z,1.58
2022-11-02T01:28:57.549Z,1.75
2022-11-02T01:32:02.065Z,1.80
2022-11-02T01:35:06.162Z,1.60
2022-11-02T01:41:14.009Z,1.75
2022-11-02T01:44:32.388Z,1.60
2022-11-02T01:47:39.219Z,1.73
2022-11-02T01:50:43.148Z,1.55
2022-11-02T01:53:50.538Z,1.40
2022-11-02T01:56:59.318Z,2.05
2022-11-02T02:00:08.508Z,2.20
2022-11-02T02:03:16.784Z,2.42
2022-11-02T02:06:19.716Z,1.55
2022-11-02T02:09:24.141Z,2.00
2022-11-02T02:12:28.555Z,1.30
2022-11-02T02:15:51.143Z,1.88
2022-11-02T02:19:02.176Z,1.98
2022-11-02T02:22:45.631Z,1.40
2022-11-02T02:26:28.722Z,1.75
2022-11-02T02:29:45.724Z,1.40
2022-11-02T02:32:57.747Z,1.83
2022-11-02T02:36:08.070Z,1.45
2022-11-02T02:39:18.918Z,1.90
2022-11-02T02:42:29.423Z,1.63
2022-11-02T02:45:39.878Z,1.70
2022-11-02T02:48:46.487Z,1.60
2022-11-02T02:51:51.091Z,1.27
2022-11-02T02:55:00.359Z,1.58
2022-11-02T02:58:05.476Z,1.45
2022-11-02T03:01:14.536Z,1.70
2022-11-02T03:04:17.732Z,1.73
2022-11-02T03:07:31.122Z,1.40
2022-11-02T03:10:48.579Z,1.30
2022-11-02T03:17:18.856Z,1.17
2022-11-02T03:20:30.945Z,1.17
2022-11-02T03:23:40.452Z,1.75
2022-11-02T03:26:51.366Z,1.73
2022-11-02T03:30:04.135Z,1.52
2022-11-02T03:33:16.351Z,1.63
2022-11-02T03:36:26.978Z,2.28
2022-11-02T03:39:37.997Z,1.40
2022-11-02T03:42:42.798Z,2.00
2022-11-02T03:45:51.643Z,1.42
2022-11-02T03:48:57.712Z,1.45
2022-11-02T03:52:07.544Z,2.00
2022-11-02T03:55:14.682Z,1.45
2022-11-02T03:58:17.833Z,1.48
2022-11-02T04:01:22.121Z,1.95
2022-11-02T04:04:26.830Z,2.03
2022-11-02T04:07:58.533Z,2.20
2022-11-02T04:11:20.478Z,1.90
2022-11-02T04:14:38.883Z,1.58
2022-11-02T04:17:59.464Z,2.10
2022-11-02T04:21:03.905Z,2.22
2022-11-02T04:24:33.331Z,1.90
2022-11-02T04:27:39.338Z,1.58
2022-11-02T04:30:42.258Z,1.80
2022-11-02T04:33:45.684Z,1.70
2022-11-02T04:36:50.042Z,1.73
2022-11-02T04:39:52.139Z,1.63
2022-11-02T04:42:55.799Z,1.65
2022-11-02T04:45:59.444Z,1.70
2022-11-02T04:49:02.883Z,1.70
2022-11-02T04:52:07.453Z,1.70
2022-11-02T04:55:11.093Z,2.17
2022-11-02T04:58:14.235Z,2.05
2022-11-02T05:01:19.856Z,2.50
2022-11-02T05:04:23.904Z,1.50
2022-11-02T05:07:28.235Z,2.10
2022-11-02T05:10:31.478Z,1.92
2022-11-02T05:13:34.686Z,1.63
2022-11-02T05:16:37.758Z,2.23
2022-11-02T05:19:40.721Z,2.08
2022-11-02T05:22:46.969Z,2.08
2022-11-02T05:25:57.823Z,1.52
2022-11-02T05:29:00.789Z,1.83
2022-11-02T05:32:04.016Z,1.95
2022-11-02T05:35:08.273Z,1.80
2022-11-02T05:38:13.524Z,1.75
2022-11-02T05:41:17.052Z,1.70
2022-11-02T05:44:19.975Z,1.90
2022-11-02T05:47:22.978Z,2.28
2022-11-02T05:50:26.065Z,1.90
2022-11-02T05:53:34.186Z,1.83
2022-11-02T05:56:37.347Z,1.63
2022-11-02T05:59:41.731Z,1.83
2022-11-02T06:02:48.066Z,1.65
2022-11-02T06:09:05.914Z,1.48
2022-11-02T06:12:10.166Z,1.70
2022-11-02T06:15:13.189Z,1.75
2022-11-02T06:18:16.505Z,2.17
2022-11-02T06:21:19.726Z,1.60
2022-11-02T06:24:24.169Z,2.63
2022-11-02T06:27:27.271Z,1.63
2022-11-02T06:30:30.213Z,2.30
2022-11-02T06:33:33.449Z,1.83
2022-11-02T06:36:36.450Z,2.13
2022-11-02T06:39:40.830Z,2.00
2022-11-02T06:42:56.471Z,2.20
2022-11-02T06:46:07.917Z,1.95
2022-11-02T06:49:10.970Z,1.70
2022-11-02T06:52:14.644Z,1.58
2022-11-02T06:55:20.002Z,1.27
2022-11-02T06:58:23.298Z,1.75
2022-11-02T07:01:26.412Z,1.80
2022-11-02T07:04:29.543Z,1.50
2022-11-02T07:07:32.658Z,1.88
2022-11-02T07:10:37.149Z,2.28
2022-11-02T07:13:40.565Z,1.65
2022-11-02T07:16:43.482Z,1.70
2022-11-02T07:19:46.497Z,1.70
2022-11-02T07:22:54.778Z,1.45
2022-11-02T07:25:59.124Z,1.48
2022-11-02T07:29:02.241Z,1.27
2022-11-02T07:32:07.531Z,1.27
2022-11-02T07:35:13.378Z,1.70
2022-11-02T07:38:16.516Z,1.67
2022-11-02T07:41:20.882Z,1.83
2022-11-02T07:44:23.888Z,1.65
2022-11-02T07:47:27.760Z,1.58
2022-11-02T07:50:30.889Z,1.85
2022-11-02T07:53:33.834Z,1.90
2022-11-02T07:56:38.285Z,1.55
2022-11-02T07:59:41.302Z,1.83
2022-11-02T08:02:44.284Z,1.85
2022-11-02T08:05:47.897Z,1.90
2022-11-02T08:08:50.856Z,1.77
2022-11-02T08:11:57.547Z,1.95
2022-11-02T08:15:06.317Z,1.50
2022-11-02T08:18:15.727Z,1.95
2022-11-02T08:21:18.927Z,1.67
2022-11-02T08:24:21.945Z,1.73
2022-11-02T08:27:26.413Z,1.42
2022-11-02T08:30:31.690Z,1.63
2022-11-02T08:33:34.762Z,2.08
2022-11-02T08:36:37.746Z,1.90
2022-11-02T08:39:40.730Z,1.95
2022-11-02T08:42:45.050Z,1.63
2022-11-02T08:46:17.688Z,2.53
2022-11-02T08:49:11.384Z,2.40
2022-11-02T08:52:14.682Z,1.95
2022-11-02T08:55:18.298Z,2.37
2022-11-02T08:58:23.113Z,1.83
2022-11-02T09:01:26.277Z,1.90
2022-11-02T09:04:29.337Z,2.00
2022-11-02T09:07:32.396Z,2.33
2022-11-02T09:10:37.474Z,1.92
2022-11-02T09:13:41.983Z,2.10
2022-11-02T09:16:44.968Z,2.17
2022-11-02T09:19:47.917Z,1.90
2022-11-02T09:22:51.007Z,1.70
2022-11-02T09:25:54.018Z,1.83
2022-11-02T09:28:58.388Z,2.40
2022-11-02T09:32:01.400Z,1.63
2022-11-02T09:35:08.871Z,1.55
2022-11-02T09:38:12.181Z,1.73
2022-11-02T09:41:27.743Z,1.70
2022-11-02T09:44:47.375Z,1.50
2022-11-02T09:48:16.012Z,1.40
2022-11-02T09:51:26.084Z,1.35
2022-11-02T09:54:34.698Z,1.50
2022-11-02T09:57:40.790Z,1.42
2022-11-02T10:00:51.829Z,1.67
2022-11-02T10:04:19.044Z,1.10
2022-11-02T10:07:52.762Z,1.55
2022-11-02T10:11:14.766Z,1.50
2022-11-02T10:14:24.883Z,2.17
2022-11-02T10:17:34.203Z,1.50
2022-11-02T10:20:46.437Z,1.92
2022-11-02T10:23:53.994Z,1.40
2022-11-02T10:27:01.656Z,2.03
2022-11-02T10:30:08.931Z,1.48
2022-11-02T10:33:17.147Z,1.25
2022-11-02T10:36:41.676Z,1.38
2022-11-02T10:40:01.523Z,1.85
2022-11-02T10:43:22.702Z,1.58
2022-11-02T10:46:43.476Z,1.67
2022-11-02T10:50:29.172Z,1.90
2022-11-02T10:53:42.145Z,1.77
2022-11-02T10:56:47.091Z,1.50
2022-11-02T11:00:29.337Z,1.52
2022-11-02T11:03:32.738Z,1.90
2022-11-02T11:06:39.909Z,1.27
2022-11-02T11:09:54.899Z,1.20
2022-11-02T11:12:59.694Z,1.20
2022-11-02T11:16:06.981Z,1.00
2022-11-02T11:19:41.472Z,1.00
2022-11-02T11:22:44.761Z,1.13
2022-11-02T11:26:05.481Z,1.10
2022-11-02T11:29:23.714Z,1.15
2022-11-02T11:32:30.974Z,1.52
2022-11-02T11:35:42.452Z,1.13
2022-11-02T11:38:56.636Z,1.30
2022-11-02T11:42:03.184Z,0.88
2022-11-02T11:45:18.438Z,0.95
2022-11-02T11:48:34.847Z,1.05
2022-11-02T11:51:43.833Z,0.50
2022-11-02T11:54:56.483Z,0.90
2022-11-02T11:58:22.821Z,0.90
2022-11-02T12:01:27.212Z,0.80
2022-11-02T12:04:36.250Z,0.85
2022-11-02T12:08:05.061Z,0.47
2022-11-02T12:11:30.073Z,0.65
2022-11-02T12:14:56.935Z,0.50
2022-11-02T12:18:18.694Z,0.30
2022-11-02T12:21:48.657Z,0.50
2022-11-02T12:25:17.461Z,0.70
2022-11-02T12:28:40.076Z,0.75
2022-11-02T12:31:47.530Z,0.85
2022-11-02T12:35:28.357Z,0.90
2022-11-02T12:39:03.251Z,0.90
2022-11-02T12:42:23.768Z,0.70
2022-11-02T12:45:43.413Z,0.82
2022-11-02T12:49:03.554Z,0.50
2022-11-02T12:52:24.953Z,0.43
2022-11-02T12:55:38.571Z,0.40
2022-11-02T12:58:44.744Z,0.70
2022-11-02T13:01:53.129Z,0.70
2022-11-02T13:05:04.907Z,0.60
2022-11-02T13:08:15.782Z,0.70
2022-11-02T13:11:38.210Z,0.50
2022-11-02T13:14:45.235Z,0.68
2022-11-02T13:17:54.608Z,0.55
2022-11-02T13:21:01.695Z,0.73
2022-11-02T13:24:11.679Z,0.80
2022-11-02T13:27:36.435Z,0.75
2022-11-02T13:30:41.817Z,0.65
2022-11-02T13:33:49.554Z,0.93
2022-11-02T13:36:52.484Z,0.73
2022-11-02T13:40:01.882Z,0.82
2022-11-02T13:43:57.922Z,0.77
2022-11-02T13:47:39.689Z,1.10
2022-11-02T13:50:50.831Z,1.25
2022-11-02T13:54:01.804Z,1.10
2022-11-02T13:57:04.801Z,0.90
2022-11-02T14:00:38.598Z,0.77
2022-11-02T14:03:58.829Z,1.42
2022-11-02T14:07:10.494Z,1.13
2022-11-02T14:10:23.822Z,1.25
2022-11-02T14:14:30.241Z,0.77
2022-11-02T14:18:13.511Z,0.80
2022-11-02T14:21:44.101Z,1.17
2022-11-02T14:25:09.628Z,0.82
2022-11-02T14:28:36.696Z,1.17
2022-11-02T14:32:03.930Z,1.35
2022-11-02T14:35:26.843Z,1.15
2022-11-02T14:38:53.869Z,0.88
2022-11-02T14:42:35.506Z,0.90
2022-11-02T14:46:09.677Z,1.13
2022-11-02T14:49:22.753Z,1.40
2022-11-02T14:52:30.885Z,1.05
2022-11-02T14:55:37.315Z,0.95
2022-11-02T14:58:51.636Z,0.90
2022-11-02T15:02:01.918Z,1.35
2022-11-02T15:05:09.865Z,1.20
2022-11-02T15:08:28.371Z,1.20
2022-11-02T15:11:50.844Z,0.95
2022-11-02T15:15:00.308Z,0.75
2022-11-02T15:18:37.127Z,0.68
2022-11-02T15:21:40.263Z,0.93
2022-11-02T15:24:47.379Z,0.80
2022-11-02T15:27:53.309Z,0.68
2022-11-02T15:31:00.752Z,1.00
2022-11-02T15:34:17.409Z,0.88
2022-11-02T15:37:24.330Z,0.77
2022-11-02T15:40:48.629Z,0.82
2022-11-02T15:44:28.193Z,0.98
2022-11-02T15:47:48.878Z,1.10
2022-11-02T15:51:03.715Z,0.85
2022-11-02T15:54:25.753Z,1.40
2022-11-02T15:57:45.519Z,1.02
2022-11-02T16:01:18.586Z,1.17
2022-11-02T16:04:23.404Z,1.10
2022-11-02T16:07:38.414Z,1.00
2022-11-02T16:11:06.028Z,0.90
2022-11-02T16:14:18.817Z,1.48
2022-11-02T16:17:24.570Z,1.30
2022-11-02T16:20:30.285Z,1.23
2022-11-02T16:23:36.680Z,1.50
2022-11-02T16:26:39.515Z,1.80
2022-11-02T16:29:44.639Z,1.60
2022-11-02T16:32:51.269Z,1.38
2022-11-02T16:35:55.434Z,1.00
2022-11-02T16:42:10.647Z,1.90
2022-11-02T16:45:37.164Z,1.60
2022-11-02T16:49:12.771Z,1.60
2022-11-02T16:52:23.037Z,1.58
2022-11-02T16:55:43.084Z,1.75
2022-11-02T16:58:51.457Z,1.65
2022-11-02T17:02:01.687Z,1.58
2022-11-02T17:05:08.218Z,1.42
2022-11-02T17:08:31.611Z,1.92
2022-11-02T17:11:34.928Z,1.10
2022-11-02T17:14:44.046Z,1.03
2022-11-02T17:17:49.798Z,1.80
2022-11-02T17:21:27.144Z,1.38
2022-11-02T17:24:36.131Z,1.92
2022-11-02T17:27:42.394Z,1.38
2022-11-02T17:30:48.328Z,1.67
2022-11-02T17:33:54.306Z,1.42
2022-11-02T17:36:57.955Z,2.00
2022-11-02T17:40:02.700Z,2.33
2022-11-02T17:43:04.822Z,1.83
2022-11-02T17:46:09.918Z,1.70
2022-11-02T17:49:14.047Z,1.58
2022-11-02T17:55:26.693Z,1.43
2022-11-02T17:58:29.591Z,2.17
2022-11-02T18:01:34.258Z,1.77
2022-11-02T18:04:38.490Z,1.58
2022-11-02T18:10:48.543Z,1.77
2022-11-02T18:13:51.844Z,2.10
2022-11-02T18:16:54.712Z,1.90
2022-11-02T18:19:58.935Z,2.20
2022-11-02T18:26:07.782Z,2.47
2022-11-02T18:29:10.581Z,2.35
2022-11-02T18:32:13.582Z,2.53
2022-11-02T18:35:25.560Z,1.98
2022-11-02T18:38:28.347Z,2.03
2022-11-02T18:41:34.737Z,2.33
2022-11-02T18:44:38.079Z,2.22
2022-11-02T18:47:42.685Z,2.03
2022-11-02T18:50:48.731Z,2.35
2022-11-02T18:53:58.377Z,1.85
2022-11-02T18:57:02.887Z,2.03
2022-11-02T19:00:07.784Z,1.80
2022-11-02T19:03:12.118Z,2.05
2022-11-02T19:06:45.579Z,1.73
2022-11-02T19:09:48.504Z,2.13
2022-11-02T19:12:51.369Z,2.30
2022-11-02T19:15:54.503Z,2.17
2022-11-02T19:18:57.724Z,1.95
2022-11-02T19:22:02.178Z,2.30
2022-11-02T19:25:06.146Z,1.50
2022-11-02T19:28:09.751Z,1.33
2022-11-02T19:31:13.418Z,1.65
2022-11-02T19:34:17.148Z,1.83
2022-11-02T19:37:21.744Z,1.95
2022-11-02T19:40:26.432Z,2.35
2022-11-02T19:43:29.455Z,1.83
2022-11-02T19:46:32.418Z,2.10
2022-11-02T19:49:36.598Z,1.90
2022-11-02T19:55:52.901Z,2.13
2022-11-02T19:58:56.344Z,2.55
2022-11-02T20:01:59.474Z,2.28
2022-11-02T20:05:02.809Z,2.63
2022-11-02T20:08:07.508Z,2.13
2022-11-02T20:11:13.266Z,2.20
2022-11-02T20:14:18.487Z,2.78
2022-11-02T20:17:46.873Z,2.78
2022-11-02T20:20:44.133Z,3.33
2022-11-02T20:23:49.943Z,3.05
2022-11-02T20:26:56.017Z,3.50
2022-11-02T20:29:58.800Z,3.20
2022-11-02T20:33:02.619Z,3.38
2022-11-02T20:36:07.585Z,2.95
2022-11-02T20:39:13.535Z,2.83
2022-11-02T20:42:16.503Z,3.13
2022-11-02T20:45:19.724Z,3.03
2022-11-02T20:51:30.980Z,3.22
2022-11-02T20:54:35.092Z,3.20
2022-11-02T20:57:37.869Z,2.67
2022-11-02T21:00:41.750Z,2.55
2022-11-02T21:03:46.120Z,3.67
2022-11-02T21:06:50.922Z,3.65
2022-11-02T21:09:55.234Z,4.35
2022-11-02T21:13:15.902Z,3.70
2022-11-02T21:16:19.150Z,3.85
2022-11-02T21:19:22.034Z,4.07
2022-11-02T21:22:26.076Z,3.67
2022-11-02T21:25:30.981Z,3.42
2022-11-02T21:31:45.945Z,3.42
2022-11-02T21:34:48.834Z,2.95
2022-11-02T21:37:56.257Z,2.42
2022-11-02T21:41:02.810Z,2.15
2022-11-02T21:44:08.011Z,2.05
2022-11-02T21:47:10.918Z,2.35
2022-11-02T21:50:13.717Z,2.70
2022-11-02T21:53:16.599Z,2.65
2022-11-02T21:56:25.525Z,3.47
2022-11-02T21:59:28.335Z,2.75
2022-11-02T22:02:31.245Z,3.15
2022-11-02T22:05:48.018Z,3.05
2022-11-02T22:08:51.515Z,2.63
2022-11-02T22:12:10.374Z,2.90
2022-11-02T22:15:13.705Z,2.75
2022-11-02T22:18:16.508Z,3.07
2022-11-02T22:21:21.087Z,3.58
2022-11-02T22:24:25.786Z,2.80
2022-11-02T22:27:31.164Z,2.40
2022-11-02T22:30:33.947Z,2.45
2022-11-02T22:33:37.532Z,2.33
2022-11-02T22:36:45.527Z,1.95
2022-11-02T22:39:48.381Z,2.55
2022-11-02T22:42:55.924Z,2.20
2022-11-02T22:46:04.020Z,2.50
2022-11-02T22:49:09.801Z,2.00
2022-11-02T22:52:12.586Z,2.00
2022-11-02T22:55:15.479Z,2.03
2022-11-02T22:58:19.792Z,2.50
2022-11-02T23:01:25.354Z,2.53
2022-11-02T23:04:28.231Z,2.78
2022-11-02T23:07:31.022Z,2.35
2022-11-02T23:10:54.717Z,2.72
2022-11-02T23:14:03.262Z,2.72
2022-11-02T23:17:06.105Z,2.30
2022-11-02T23:20:11.209Z,2.17
2022-11-02T23:23:31.610Z,2.47
2022-11-02T23:26:35.095Z,1.85
2022-11-02T23:29:57.619Z,2.35
2022-11-02T23:33:00.412Z,2.63
2022-11-02T23:36:15.153Z,2.40
2022-11-02T23:39:35.582Z,2.35
2022-11-02T23:42:38.577Z,1.77
2022-11-02T23:45:42.734Z,2.40
2022-11-02T23:52:11.746Z,1.70
2022-11-02T23:55:32.618Z,1.55
2022-11-02T23:58:36.214Z,1.80
